Trorod, Denmark
Current Conditions -  °F | °C
As of 3:20 PM on Saturday 22 Nov 2014 (Local Time) from EKCH Reporting Station
Broken Clouds Broken Clouds  
Wind Chill: 39°   Ceiling: 2200
Heat Index: 45°   Visibility: 6mi
Dew Point: 37°   Wind: 10mph
Humidity: 76%   Direction: 160°SSE
Pressure: 30.27"   Gusts: NA
Location:  55.84°N, 12.54°E
Report Text: EKCH 221420Z 16009KT 9999 BKN022 07/03 Q1025 NOSIG
Loading
Personal Weather Stations






























Interactive Weather Map New forecast layout! Learn more

10-Day Weather Forecast

Advertisements
Track Severe Weather on mobile